UBBB/BAK METAR and TAF weather

Enter ICAO airport designator
Station Type Date Time Source
UBBB METAR 2021/03/03 21:00 UTC NOAA

UBBB 032100Z 33020G30KT 9999 SCT016 06/03 Q1020 R88/CLRD// NOSIG


Station Type Date Time Source
UBBB Decoded METAR 2021/03/03 21:00 UTC NOAA

Baku / Bine Airport, Azerbaijan (UBBB) 40-27N 050-04E -1M
Mar 03, 2021 - 04:00 PM EST / 2021.03.03 2100 UTC
Wind: from the NNW (330 degrees) at 23 MPH (20 KT) gusting to 35 MPH (30 KT):0
Visibility: greater than 7 mile(s):0
Sky conditions: partly cloudy
Temperature: 42 F (6 C)
Dew Point: 37 F (3 C)
Relative Humidity: 81%
Pressure (altimeter): 30.12 in. Hg (1020 hPa)
ob: UBBB 032100Z 33020G30KT 9999 SCT016 06/03 Q1020 R88/CLRD// NOSIG
cycle: 21

Station Type Date Time Source
UBBB TAF 2021/03/03 18:13 UTC NOAA

TAF UBBB 031710Z 0318/0418 32010KT 9999 SCT012 BKN030 TX07/0410Z TN04/0403Z
BECMG 0320/0322 33018G28KT
TEMPO 0322/0406 34024G34KT SCT006 SCT030CB
BECMG 0408/0410 01012KT
BECMG 0412/0414 14005KT

Example: see airport list